Terminal Aerodrome Forecast
Issued by NWS

Home | Current Version | Previous Version | Text Only | Print | Product List | Glossary On
Versions: 1 2 3 4 5 6 7 8 9 10 11 12 13
443
FTUS46 KSGX 261736
TAFPSP
TAF
KPSP 261736Z 2618/2718 VRB06KT P6SM SCT250
     FM262000 09009G18KT P6SM SCT250
     FM270000 32012G25KT P6SM SCT250
     FM271000 31007KT P6SM SCT250
     FM271500 35010G18KT P6SM SCT250=

USA.gov is the U.S. government's official web portal to all federal, state and local government web resources and services.